createdAt,value
2019-04-04T00:01:48.203Z,74.88
2019-04-04T00:04:15.347Z,74.47
2019-04-04T00:06:42.331Z,73.87
2019-04-04T00:09:12.070Z,74.07
2019-04-04T00:11:39.309Z,74.22
2019-04-04T00:14:06.603Z,73.27
2019-04-04T00:16:33.474Z,73.49
2019-04-04T00:19:00.274Z,73.78
2019-04-04T00:21:27.273Z,74.08
2019-04-04T00:23:54.635Z,73.77
2019-04-04T00:26:22.579Z,73.94
2019-04-04T00:28:49.403Z,74.48
2019-04-04T00:31:18.862Z,74.99
2019-04-04T00:33:44.941Z,74.55
2019-04-04T00:36:11.759Z,73.96
2019-04-04T00:38:39.811Z,73.76
2019-04-04T00:41:08.564Z,74.14
2019-04-04T00:43:35.469Z,74.24
2019-04-04T00:46:02.257Z,74.55
2019-04-04T00:48:29.279Z,74.89
2019-04-04T00:50:56.012Z,74.78
2019-04-04T00:53:22.793Z,74.61
2019-04-04T00:55:49.569Z,74.36
2019-04-04T00:58:18.897Z,74.65
2019-04-04T01:00:46.701Z,74.54
2019-04-04T01:03:16.605Z,74.23
2019-04-04T01:05:43.420Z,74.39
2019-04-04T01:08:10.147Z,73.67
2019-04-04T01:10:36.926Z,73.50
2019-04-04T01:13:03.681Z,74.55
2019-04-04T01:15:31.145Z,74.94
2019-04-04T01:17:58.764Z,74.92
2019-04-04T01:20:25.497Z,74.81
2019-04-04T01:22:55.757Z,74.79
2019-04-04T01:25:21.132Z,74.84
2019-04-04T01:27:49.796Z,75.05
2019-04-04T01:30:17.043Z,74.88
2019-04-04T01:32:46.275Z,75.66
2019-04-04T01:35:14.545Z,76.42
2019-04-04T01:37:41.505Z,76.57
2019-04-04T01:40:08.270Z,76.63
2019-04-04T01:42:37.869Z,76.88
2019-04-04T01:45:04.353Z,77.38
2019-04-04T01:47:31.255Z,77.39
2019-04-04T01:49:59.386Z,77.71
2019-04-04T01:52:28.704Z,78.25
2019-04-04T01:54:55.442Z,78.42
2019-04-04T01:57:22.322Z,78.46
2019-04-04T01:59:51.111Z,78.73
2019-04-04T02:02:18.628Z,78.38
2019-04-04T02:04:45.590Z,77.70
2019-04-04T02:07:12.522Z,77.55
2019-04-04T02:09:43.370Z,77.60
2019-04-04T02:12:10.351Z,78.04
2019-04-04T02:14:37.221Z,77.58
2019-04-04T02:17:04.791Z,77.59
2019-04-04T02:19:31.536Z,77.48
2019-04-04T02:21:59.869Z,77.40
2019-04-04T02:24:27.352Z,77.26
2019-04-04T02:26:57.203Z,77.30
2019-04-04T02:29:25.997Z,77.56
2019-04-04T02:31:56.291Z,77.55
2019-04-04T02:34:23.028Z,77.72
2019-04-04T02:36:51.186Z,76.87
2019-04-04T02:39:19.514Z,76.50
2019-04-04T02:41:50.674Z,76.85
2019-04-04T02:44:17.415Z,76.62
2019-04-04T02:46:45.633Z,77.13
2019-04-04T02:49:12.705Z,77.05
2019-04-04T02:51:41.077Z,77.37
2019-04-04T02:54:08.107Z,78.07
2019-04-04T02:56:36.094Z,78.07
2019-04-04T02:59:05.620Z,78.38
2019-04-04T03:01:33.316Z,78.25
2019-04-04T03:04:00.294Z,79.36
2019-04-04T03:06:30.049Z,79.87
2019-04-04T03:08:57.344Z,79.70
2019-04-04T03:11:24.859Z,79.90
2019-04-04T03:13:51.691Z,80.15
2019-04-04T03:16:21.339Z,80.44
2019-04-04T03:18:49.687Z,79.89
2019-04-04T03:21:16.468Z,79.58
2019-04-04T03:23:43.550Z,79.34
2019-04-04T03:26:10.381Z,79.71
2019-04-04T03:28:37.142Z,80.19
2019-04-04T03:31:04.294Z,80.23
2019-04-04T03:33:32.699Z,80.71
2019-04-04T03:36:00.954Z,81.08
2019-04-04T03:38:28.221Z,80.42
2019-04-04T03:40:57.871Z,80.43
2019-04-04T03:43:23.962Z,80.63
2019-04-04T03:45:50.715Z,80.38
2019-04-04T03:48:18.731Z,80.43
2019-04-04T03:50:45.844Z,80.87
2019-04-04T03:53:16.260Z,80.27
2019-04-04T03:55:41.431Z,80.37
2019-04-04T03:58:08.137Z,80.29
2019-04-04T04:00:39.207Z,80.45
2019-04-04T04:03:03.952Z,80.29
2019-04-04T04:05:33.775Z,79.99
2019-04-04T04:08:01.799Z,79.70
2019-04-04T04:10:32.276Z,80.13
2019-04-04T04:12:58.863Z,80.03
2019-04-04T04:15:29.286Z,80.53
2019-04-04T04:17:54.345Z,80.22
2019-04-04T04:20:21.056Z,80.76
2019-04-04T04:22:50.438Z,80.24
2019-04-04T04:25:16.888Z,80.51
2019-04-04T04:27:47.336Z,80.47
2019-04-04T04:30:12.690Z,80.65
2019-04-04T04:32:39.446Z,80.44
2019-04-04T04:35:08.569Z,80.60
2019-04-04T04:37:35.784Z,79.97
2019-04-04T04:40:03.195Z,79.90
2019-04-04T04:42:29.920Z,79.11
2019-04-04T04:44:56.691Z,79.72
2019-04-04T04:47:24.101Z,80.16
2019-04-04T04:49:55.144Z,80.27
2019-04-04T04:52:19.705Z,80.21
2019-04-04T04:54:46.481Z,78.65
2019-04-04T04:57:28.356Z,78.85
2019-04-04T04:59:44.295Z,79.53
2019-04-04T05:02:10.798Z,79.53
2019-04-04T05:04:37.561Z,80.72
2019-04-04T05:07:07.073Z,80.72
2019-04-04T05:09:33.381Z,80.35
2019-04-04T05:12:00.121Z,80.03
2019-04-04T05:14:29.794Z,79.64
2019-04-04T05:16:56.850Z,80.18
2019-04-04T05:19:23.706Z,79.94
2019-04-04T05:21:50.956Z,80.86
2019-04-04T05:24:18.171Z,81.07
2019-04-04T05:26:45.738Z,80.65
2019-04-04T05:29:14.019Z,80.45
2019-04-04T05:31:41.077Z,81.39
2019-04-04T05:34:08.230Z,81.28
2019-04-04T05:36:37.428Z,81.68
2019-04-04T05:39:06.138Z,81.63
2019-04-04T05:41:32.906Z,81.02
2019-04-04T05:43:59.669Z,81.50
2019-04-04T05:46:27.229Z,80.72
2019-04-04T05:48:54.022Z,80.50
2019-04-04T05:51:20.797Z,79.93
2019-04-04T05:53:47.712Z,79.40
2019-04-04T05:56:15.186Z,78.93
2019-04-04T05:58:42.640Z,76.13
2019-04-04T06:01:11.201Z,74.89
2019-04-04T06:03:37.990Z,74.94
2019-04-04T06:06:05.023Z,75.58
2019-04-04T06:08:32.058Z,77.48
2019-04-04T06:10:59.468Z,78.98
2019-04-04T06:13:27.777Z,80.24
2019-04-04T06:15:54.779Z,80.97
2019-04-04T06:18:21.663Z,81.18
2019-04-04T06:20:49.063Z,81.27
2019-04-04T06:23:16.064Z,81.04
2019-04-04T06:25:43.004Z,79.38
2019-04-04T06:28:11.898Z,78.80
2019-04-04T06:30:43.337Z,78.39
2019-04-04T06:33:09.508Z,77.72
2019-04-04T06:35:39.532Z,78.23
2019-04-04T06:38:05.305Z,79.41
2019-04-04T06:40:32.388Z,79.39
2019-04-04T06:42:59.422Z,79.65
2019-04-04T06:45:30.168Z,79.23
2019-04-04T06:48:00.168Z,80.08
2019-04-04T06:50:27.047Z,79.47
2019-04-04T06:52:56.515Z,78.98
2019-04-04T06:55:22.950Z,79.73
2019-04-04T06:57:51.408Z,78.75
2019-04-04T07:00:18.673Z,78.67
2019-04-04T07:02:47.285Z,76.99
2019-04-04T07:05:16.252Z,78.21
2019-04-04T07:07:43.997Z,77.58
2019-04-04T07:10:11.006Z,78.88
2019-04-04T07:12:38.687Z,77.80
2019-04-04T07:15:05.888Z,78.38
2019-04-04T07:17:42.432Z,77.70
2019-04-04T07:20:07.726Z,78.18
2019-04-04T07:22:41.095Z,78.40
2019-04-04T07:25:13.922Z,76.68
2019-04-04T07:27:40.836Z,76.30
2019-04-04T07:30:08.634Z,76.30
2019-04-04T07:32:35.383Z,77.34
2019-04-04T07:35:02.188Z,77.71
2019-04-04T07:37:28.966Z,77.83
2019-04-04T07:39:56.582Z,77.41
2019-04-04T07:42:23.368Z,77.44
2019-04-04T07:44:50.415Z,78.21
2019-04-04T07:47:17.320Z,78.28
2019-04-04T07:49:44.118Z,78.35
2019-04-04T07:52:11.050Z,77.12
2019-04-04T07:54:38.426Z,77.12
2019-04-04T07:57:06.178Z,78.12
2019-04-04T07:59:32.948Z,77.29
2019-04-04T08:01:59.788Z,76.99
2019-04-04T08:04:26.552Z,79.39
2019-04-04T08:06:53.382Z,80.01
2019-04-04T08:09:20.137Z,78.57
2019-04-04T08:11:49.999Z,78.08
2019-04-04T08:14:17.073Z,78.46
2019-04-04T08:16:43.938Z,76.81
2019-04-04T08:19:10.886Z,76.74
2019-04-04T08:21:37.696Z,76.74
2019-04-04T08:24:04.474Z,77.72
2019-04-04T08:26:31.246Z,76.48
2019-04-04T08:28:58.376Z,77.41
2019-04-04T08:31:25.492Z,76.69
2019-04-04T08:33:52.445Z,77.50
2019-04-04T08:36:19.207Z,76.97
2019-04-04T08:38:45.991Z,77.04
2019-04-04T08:41:12.789Z,75.88
2019-04-04T08:43:40.034Z,76.76
2019-04-04T08:46:07.404Z,76.68
2019-04-04T08:48:34.308Z,76.85
2019-04-04T08:51:02.285Z,75.80
2019-04-04T08:53:39.143Z,76.78
2019-04-04T08:55:57.934Z,77.36
2019-04-04T08:58:24.969Z,76.96
2019-04-04T09:00:51.730Z,76.92
2019-04-04T09:03:18.688Z,77.93
2019-04-04T09:05:48.616Z,76.26
2019-04-04T09:08:15.472Z,77.26
2019-04-04T09:10:42.902Z,76.53
2019-04-04T09:13:10.014Z,77.31
2019-04-04T09:15:39.063Z,76.97
2019-04-04T09:18:11.516Z,76.65
2019-04-04T09:20:40.182Z,76.72
2019-04-04T09:23:10.382Z,77.32
2019-04-04T09:25:37.132Z,76.87
2019-04-04T09:28:03.969Z,74.79
2019-04-04T09:30:31.036Z,76.05
2019-04-04T09:32:58.210Z,76.51
2019-04-04T09:35:25.628Z,75.80
2019-04-04T09:37:53.003Z,74.58
2019-04-04T09:40:22.100Z,74.44
2019-04-04T09:42:49.021Z,73.58
2019-04-04T09:45:15.806Z,74.98
2019-04-04T09:47:47.437Z,74.67
2019-04-04T09:50:14.557Z,74.78
2019-04-04T09:52:44.792Z,76.12
2019-04-04T09:55:11.540Z,76.63
2019-04-04T09:57:38.473Z,77.42
2019-04-04T10:00:07.486Z,76.66
2019-04-04T10:02:34.261Z,77.27
2019-04-04T10:05:05.777Z,77.41
2019-04-04T10:07:31.797Z,76.90
2019-04-04T10:09:59.398Z,75.67
2019-04-04T10:12:29.313Z,74.39
2019-04-04T10:14:56.723Z,74.51
2019-04-04T10:17:23.820Z,73.78
2019-04-04T10:19:50.620Z,74.30
2019-04-04T10:22:19.315Z,73.90
2019-04-04T10:24:46.182Z,74.79
2019-04-04T10:27:12.980Z,76.31
2019-04-04T10:29:42.287Z,75.14
2019-04-04T10:32:09.043Z,73.60
2019-04-04T10:34:41.503Z,73.14
2019-04-04T10:37:10.297Z,72.70
2019-04-04T10:39:42.528Z,74.15
2019-04-04T10:42:09.495Z,76.73
2019-04-04T10:44:37.342Z,77.61
2019-04-04T10:47:06.089Z,75.68
2019-04-04T10:49:33.849Z,74.97
2019-04-04T10:52:01.174Z,75.88
2019-04-04T10:54:28.670Z,75.21
2019-04-04T10:56:55.903Z,76.86
2019-04-04T10:59:25.595Z,74.55
2019-04-04T11:01:52.743Z,75.57
2019-04-04T11:04:19.571Z,77.33
2019-04-04T11:06:46.433Z,76.32
2019-04-04T11:09:14.201Z,76.95
2019-04-04T11:11:43.393Z,77.09
2019-04-04T11:14:10.463Z,77.68
2019-04-04T11:16:37.488Z,79.06
2019-04-04T11:19:06.280Z,78.52
2019-04-04T11:21:33.224Z,79.32
2019-04-04T11:23:59.961Z,78.56
2019-04-04T11:26:26.842Z,78.93
2019-04-04T11:28:53.870Z,80.19
2019-04-04T11:31:20.639Z,79.39
2019-04-04T11:33:47.517Z,78.21
2019-04-04T11:36:17.389Z,78.03
2019-04-04T11:38:47.742Z,77.70
2019-04-04T11:41:16.433Z,75.81
2019-04-04T11:43:43.214Z,74.00
2019-04-04T11:46:10.103Z,75.01
2019-04-04T11:48:49.154Z,74.82
2019-04-04T11:51:21.471Z,75.19
2019-04-04T11:53:52.817Z,75.64
2019-04-04T11:56:27.310Z,74.57
2019-04-04T11:58:54.475Z,73.62
2019-04-04T12:01:32.101Z,71.70
2019-04-04T12:03:59.303Z,73.33
2019-04-04T12:06:26.395Z,72.92
2019-04-04T12:08:57.845Z,73.38
2019-04-04T12:11:24.847Z,71.84
2019-04-04T12:13:51.688Z,70.96
2019-04-04T12:16:20.966Z,71.75
2019-04-04T12:18:49.752Z,74.07
2019-04-04T12:21:18.665Z,73.53
2019-04-04T12:23:51.559Z,71.48
2019-04-04T12:26:23.961Z,71.47
2019-04-04T12:28:50.842Z,72.04
2019-04-04T12:31:20.301Z,72.30
2019-04-04T12:33:47.763Z,73.58
2019-04-04T12:36:24.536Z,72.32
2019-04-04T12:38:50.568Z,72.40
2019-04-04T12:41:17.665Z,73.20
2019-04-04T12:43:44.737Z,73.52
2019-04-04T12:46:14.705Z,74.31
2019-04-04T12:48:43.109Z,74.20
2019-04-04T12:51:32.471Z,74.11
2019-04-04T12:54:02.007Z,75.79
2019-04-04T12:56:29.142Z,75.76
2019-04-04T12:58:57.022Z,76.28
2019-04-04T13:01:23.951Z,75.12
2019-04-04T13:03:50.738Z,76.04
2019-04-04T13:06:20.097Z,77.20
2019-04-04T13:08:51.581Z,78.64
2019-04-04T13:11:21.706Z,78.15
2019-04-04T13:13:51.754Z,76.12
2019-04-04T13:16:18.637Z,75.39
2019-04-04T13:18:46.397Z,76.51
2019-04-04T13:21:16.795Z,75.67
2019-04-04T13:23:46.931Z,74.83
2019-04-04T13:26:13.772Z,74.83
2019-04-04T13:28:40.665Z,74.33
2019-04-04T13:31:11.327Z,74.14
2019-04-04T13:33:38.233Z,75.50
2019-04-04T13:36:05.051Z,74.67
2019-04-04T13:38:33.821Z,74.06
2019-04-04T13:41:00.737Z,73.21
2019-04-04T13:43:28.161Z,72.50
2019-04-04T13:45:55.036Z,71.71
2019-04-04T13:48:22.649Z,72.84
2019-04-04T13:50:49.535Z,72.15
2019-04-04T13:53:16.431Z,71.92
2019-04-04T13:55:44.000Z,72.64
2019-04-04T13:58:13.272Z,75.37
2019-04-04T14:00:39.991Z,76.71
2019-04-04T14:03:08.967Z,76.31
2019-04-04T14:05:36.214Z,74.94
2019-04-04T14:08:03.159Z,72.59
2019-04-04T14:10:32.971Z,72.05
2019-04-04T14:13:00.541Z,72.22
2019-04-04T14:15:27.535Z,72.38
2019-04-04T14:17:56.305Z,72.73
2019-04-04T14:20:23.081Z,72.29
2019-04-04T14:22:51.224Z,73.05
2019-04-04T14:25:18.825Z,72.82
2019-04-04T14:27:45.840Z,72.96
2019-04-04T14:30:12.659Z,72.68
2019-04-04T14:32:40.067Z,72.53
2019-04-04T14:35:07.035Z,72.73
2019-04-04T14:37:33.830Z,74.19
2019-04-04T14:40:00.781Z,72.96
2019-04-04T14:42:27.562Z,73.15
2019-04-04T14:44:54.292Z,73.27
2019-04-04T14:47:21.261Z,73.50
2019-04-04T14:49:48.027Z,74.10
2019-04-04T14:52:19.501Z,74.81
2019-04-04T14:54:45.508Z,74.16
2019-04-04T14:57:12.827Z,74.07
2019-04-04T14:59:42.406Z,73.37
2019-04-04T15:02:10.843Z,74.27
2019-04-04T15:04:39.821Z,74.33
2019-04-04T15:07:10.152Z,74.52
2019-04-04T15:09:37.634Z,74.83
2019-04-04T15:12:04.389Z,73.04
2019-04-04T15:14:37.060Z,73.60
2019-04-04T15:17:03.962Z,72.40
2019-04-04T15:19:31.233Z,72.54
2019-04-04T15:21:58.150Z,72.91
2019-04-04T15:24:25.214Z,73.31
2019-04-04T15:26:55.075Z,73.07
2019-04-04T15:29:22.239Z,72.81
2019-04-04T15:31:49.479Z,72.36
2019-04-04T15:34:16.572Z,72.51
2019-04-04T15:37:25.817Z,72.79
2019-04-04T15:40:12.254Z,73.51
2019-04-04T15:42:46.199Z,72.68
2019-04-04T15:45:13.083Z,71.62
2019-04-04T15:47:41.208Z,71.87
2019-04-04T15:50:19.045Z,70.40
2019-04-04T15:52:45.758Z,70.32
2019-04-04T15:55:12.705Z,70.09
2019-04-04T15:57:39.604Z,70.14
2019-04-04T16:00:08.659Z,70.76
2019-04-04T16:02:38.390Z,71.11
2019-04-04T16:05:05.622Z,70.86
2019-04-04T16:07:32.339Z,70.76
2019-04-04T16:09:59.792Z,70.82
2019-04-04T16:12:26.798Z,71.76
2019-04-04T16:15:03.368Z,72.28
2019-04-04T16:17:30.562Z,72.32
2019-04-04T16:19:57.793Z,72.12
2019-04-04T16:22:24.838Z,72.47
2019-04-04T16:24:52.170Z,72.69
2019-04-04T16:27:18.914Z,73.14
2019-04-04T16:29:45.909Z,73.21
2019-04-04T16:32:12.642Z,73.40
2019-04-04T16:34:39.424Z,72.89
2019-04-04T16:37:08.275Z,72.98
2019-04-04T16:39:35.510Z,73.18
2019-04-04T16:42:03.347Z,73.36
2019-04-04T16:44:30.331Z,73.65
2019-04-04T16:46:57.705Z,73.69
2019-04-04T16:49:24.976Z,73.34
2019-04-04T16:51:53.419Z,73.47
2019-04-04T16:54:20.380Z,73.35
2019-04-04T16:56:49.782Z,73.20
2019-04-04T16:59:16.819Z,73.01
2019-04-04T17:01:44.084Z,72.90
2019-04-04T17:04:11.040Z,73.05
2019-04-04T17:06:38.361Z,72.43
2019-04-04T17:09:06.580Z,72.79
2019-04-04T17:11:33.486Z,72.69
2019-04-04T17:14:00.440Z,73.11
2019-04-04T17:16:27.250Z,73.18
2019-04-04T17:18:54.030Z,72.79
2019-04-04T17:21:20.801Z,72.31
2019-04-04T17:23:47.633Z,72.72
2019-04-04T17:26:14.378Z,72.94
2019-04-04T17:28:41.183Z,72.51
2019-04-04T17:31:08.465Z,71.91
2019-04-04T17:33:35.759Z,71.80
2019-04-04T17:36:02.631Z,71.41
2019-04-04T17:38:29.605Z,72.19
2019-04-04T17:40:56.318Z,72.47
2019-04-04T17:43:23.158Z,72.72
2019-04-04T17:45:50.563Z,72.75
2019-04-04T17:48:17.673Z,72.68
2019-04-04T17:50:48.612Z,72.37
2019-04-04T17:53:15.611Z,72.76
2019-04-04T17:55:42.532Z,73.05
2019-04-04T17:58:09.413Z,73.24
2019-04-04T18:00:36.170Z,73.32
2019-04-04T18:03:03.862Z,73.63
2019-04-04T18:05:30.714Z,73.67
2019-04-04T18:07:58.239Z,74.04
2019-04-04T18:10:25.352Z,74.23
2019-04-04T18:12:52.242Z,74.33
2019-04-04T18:15:21.444Z,74.62
2019-04-04T18:17:48.148Z,74.51
2019-04-04T18:20:17.469Z,74.80
2019-04-04T18:22:44.304Z,75.05
2019-04-04T18:25:11.074Z,75.28
2019-04-04T18:27:38.051Z,75.01
2019-04-04T18:30:06.385Z,75.05
2019-04-04T18:32:35.591Z,75.64
2019-04-04T18:35:02.616Z,75.47
2019-04-04T18:37:29.854Z,75.82
2019-04-04T18:39:57.146Z,76.00
2019-04-04T18:42:24.762Z,76.19
2019-04-04T18:44:51.868Z,76.10
2019-04-04T18:47:19.793Z,75.89
2019-04-04T18:49:48.377Z,75.89
2019-04-04T18:52:15.453Z,75.60
2019-04-04T18:54:43.403Z,75.23
2019-04-04T18:57:16.909Z,75.34
2019-04-04T18:59:46.092Z,75.76
2019-04-04T19:02:12.856Z,75.38
2019-04-04T19:04:39.790Z,75.27
2019-04-04T19:07:06.923Z,75.53
2019-04-04T19:09:33.797Z,75.32
2019-04-04T19:12:00.825Z,75.39
2019-04-04T19:14:29.201Z,75.32
2019-04-04T19:16:56.012Z,75.67
2019-04-04T19:19:22.762Z,75.33
2019-04-04T19:21:49.512Z,75.04
2019-04-04T19:24:16.242Z,75.20
2019-04-04T19:26:43.018Z,75.31
2019-04-04T19:29:09.747Z,75.49
2019-04-04T19:31:36.494Z,75.34
2019-04-04T19:34:05.685Z,75.30
2019-04-04T19:36:36.054Z,74.14
2019-04-04T19:39:07.326Z,74.02
2019-04-04T19:41:37.437Z,74.11
2019-04-04T19:44:04.738Z,74.25
2019-04-04T19:46:37.160Z,74.30
2019-04-04T19:49:03.138Z,73.95
2019-04-04T19:51:29.982Z,73.97
2019-04-04T19:53:57.791Z,74.14
2019-04-04T19:56:24.692Z,74.61
2019-04-04T19:58:54.200Z,74.33
2019-04-04T20:01:21.170Z,74.45
2019-04-04T20:03:48.156Z,74.36
2019-04-04T20:06:14.922Z,75.03
2019-04-04T20:08:41.654Z,75.58
2019-04-04T20:11:08.414Z,75.86
2019-04-04T20:13:35.645Z,75.12
2019-04-04T20:16:02.513Z,75.08
2019-04-04T20:18:29.748Z,75.04
2019-04-04T20:20:56.582Z,74.87
2019-04-04T20:23:23.476Z,74.87
2019-04-04T20:25:50.277Z,75.42
2019-04-04T20:28:17.257Z,75.62
2019-04-04T20:30:46.864Z,75.16
2019-04-04T20:33:13.778Z,75.62
2019-04-04T20:35:41.100Z,75.83
2019-04-04T20:38:07.856Z,75.95
2019-04-04T20:40:34.702Z,75.50
2019-04-04T20:43:01.465Z,75.18
2019-04-04T20:45:28.303Z,75.62
2019-04-04T20:47:55.212Z,75.51
2019-04-04T20:50:23.940Z,75.56
2019-04-04T20:52:51.056Z,75.72
2019-04-04T20:55:17.828Z,75.87
2019-04-04T20:57:44.570Z,75.79
2019-04-04T21:00:11.570Z,75.91
2019-04-04T21:02:38.321Z,76.46
2019-04-04T21:05:05.098Z,77.12
2019-04-04T21:07:31.990Z,77.70
2019-04-04T21:09:59.055Z,77.54
2019-04-04T21:12:25.839Z,77.85
2019-04-04T21:14:52.761Z,78.33
2019-04-04T21:17:19.535Z,78.24
2019-04-04T21:19:46.322Z,77.94
2019-04-04T21:22:26.548Z,77.80
2019-04-04T21:24:42.359Z,77.89
2019-04-04T21:27:09.109Z,77.85
2019-04-04T21:29:36.152Z,78.29
2019-04-04T21:32:02.907Z,78.21
2019-04-04T21:34:29.669Z,78.46
2019-04-04T21:36:56.425Z,78.50
2019-04-04T21:39:23.183Z,78.41
2019-04-04T21:41:49.924Z,78.53
2019-04-04T21:44:16.809Z,78.62
2019-04-04T21:46:43.666Z,79.11
2019-04-04T21:49:10.564Z,79.33
2019-04-04T21:51:37.328Z,79.05
2019-04-04T21:54:04.385Z,79.49
2019-04-04T21:56:31.153Z,79.49
2019-04-04T21:58:58.069Z,79.18
2019-04-04T22:01:24.919Z,79.25
2019-04-04T22:03:51.681Z,79.13
2019-04-04T22:06:18.493Z,79.13
2019-04-04T22:08:45.318Z,78.79
2019-04-04T22:11:12.259Z,78.74
2019-04-04T22:13:39.183Z,79.08
2019-04-04T22:16:06.610Z,78.86
2019-04-04T22:18:33.595Z,78.68
2019-04-04T22:21:00.391Z,78.21
2019-04-04T22:23:27.433Z,78.90
2019-04-04T22:25:54.270Z,79.21
2019-04-04T22:28:21.315Z,79.43
2019-04-04T22:30:48.141Z,79.18
2019-04-04T22:33:14.973Z,78.74
2019-04-04T22:35:42.023Z,78.82
2019-04-04T22:38:09.092Z,78.92
2019-04-04T22:40:36.196Z,78.87
2019-04-04T22:43:02.923Z,78.81
2019-04-04T22:45:29.764Z,78.91
2019-04-04T22:47:56.479Z,78.69
2019-04-04T22:50:23.231Z,78.82
2019-04-04T22:52:49.953Z,78.49
2019-04-04T22:55:16.879Z,78.64
2019-04-04T22:57:45.526Z,78.36
2019-04-04T23:00:12.471Z,78.33
2019-04-04T23:02:40.131Z,78.63
2019-04-04T23:05:06.877Z,78.70
2019-04-04T23:07:36.637Z,78.72
2019-04-04T23:10:04.416Z,78.39
2019-04-04T23:12:31.125Z,78.44
2019-04-04T23:14:57.961Z,78.40
2019-04-04T23:17:24.681Z,78.14
2019-04-04T23:19:51.421Z,78.75
2019-04-04T23:22:18.168Z,79.57
2019-04-04T23:24:44.902Z,80.49
2019-04-04T23:27:11.625Z,80.58
2019-04-04T23:29:38.363Z,81.01
2019-04-04T23:32:05.105Z,81.01
2019-04-04T23:34:31.837Z,80.58
2019-04-04T23:36:58.636Z,79.82
2019-04-04T23:39:25.355Z,79.28
2019-04-04T23:41:52.113Z,79.19
2019-04-04T23:44:19.149Z,79.35
2019-04-04T23:46:46.012Z,79.11
2019-04-04T23:49:12.815Z,78.90
2019-04-04T23:51:39.537Z,78.73
2019-04-04T23:54:06.303Z,78.86
2019-04-04T23:56:32.985Z,79.12
2019-04-04T23:58:59.731Z,79.30
